ACA426 CYYZ-CYUL
Flight info
| Callsign | ACA426 |
|---|---|
| Flight time | 0h 50m |
| Altitude | 31000 |
| Route | DEDKI5 MIGLO HABBS7 |
| Aircraft | A321/M-SDE3FGHIRWY/LB1 |
Departure
| Time | 2026-05-06 00:31 |
|---|---|
| Airport | Toronto Pearson International Airport (CYYZ) |
Arrival
| Time | 2026-05-06 01:21 |
|---|---|
| Airport | Montreal / Pierre Elliott Trudeau International Airport (CYUL) |
| Time | Latitude | Longitude | Altitude | Speed | Heading |
|---|---|---|---|---|---|
| 2026-05-05 22:54 | 43.68024 | -79.61709 | 562 ft | 0 kts | 136° |
| 2026-05-06 00:15 | 43.68036 | -79.61724 | 566 ft | 4 kts | 136° |
| 2026-05-06 00:16 | 43.68055 | -79.61750 | 560 ft | 3 kts | 136° |
| 2026-05-06 00:16 | 43.68072 | -79.61769 | 571 ft | 4 kts | 162° |
| 2026-05-06 00:16 | 43.68096 | -79.61768 | 568 ft | 4 kts | 211° |
| 2026-05-06 00:16 | 43.68112 | -79.61750 | 570 ft | 0 kts | 226° |
| 2026-05-06 00:19 | 43.68112 | -79.61751 | 570 ft | 0 kts | 226° |
| 2026-05-06 00:20 | 43.68105 | -79.61761 | 564 ft | 5 kts | 226° |
| 2026-05-06 00:20 | 43.68055 | -79.61832 | 566 ft | 15 kts | 226° |
| 2026-05-06 00:20 | 43.67996 | -79.61946 | 565 ft | 14 kts | 250° |
| 2026-05-06 00:20 | 43.67949 | -79.62054 | 568 ft | 13 kts | 227° |
| 2026-05-06 00:21 | 43.67889 | -79.62132 | 567 ft | 12 kts | 211° |
| 2026-05-06 00:21 | 43.67796 | -79.62075 | 571 ft | 21 kts | 137° |
| 2026-05-06 00:21 | 43.67685 | -79.61928 | 569 ft | 22 kts | 138° |
| 2026-05-06 00:21 | 43.67578 | -79.61790 | 567 ft | 20 kts | 136° |
| 2026-05-06 00:22 | 43.67477 | -79.61659 | 566 ft | 20 kts | 136° |
| 2026-05-06 00:22 | 43.67379 | -79.61531 | 565 ft | 19 kts | 136° |
| 2026-05-06 00:22 | 43.67282 | -79.61404 | 568 ft | 19 kts | 137° |
| 2026-05-06 00:22 | 43.67191 | -79.61286 | 564 ft | 17 kts | 136° |
| 2026-05-06 00:23 | 43.67151 | -79.61153 | 561 ft | 16 kts | 48° |
| 2026-05-06 00:23 | 43.67231 | -79.61034 | 564 ft | 17 kts | 46° |
| 2026-05-06 00:23 | 43.67312 | -79.60916 | 558 ft | 16 kts | 46° |
| 2026-05-06 00:23 | 43.67391 | -79.60803 | 567 ft | 18 kts | 46° |
| 2026-05-06 00:24 | 43.67493 | -79.60661 | 565 ft | 21 kts | 45° |
| 2026-05-06 00:24 | 43.67585 | -79.60519 | 567 ft | 19 kts | 47° |
| 2026-05-06 00:24 | 43.67676 | -79.60389 | 569 ft | 20 kts | 45° |
| 2026-05-06 00:24 | 43.67799 | -79.60213 | 565 ft | 30 kts | 47° |
| 2026-05-06 00:25 | 43.67921 | -79.60033 | 566 ft | 19 kts | 46° |
| 2026-05-06 00:25 | 43.67977 | -79.59953 | 565 ft | 0 kts | 45° |
| 2026-05-06 00:25 | 43.67988 | -79.59933 | 567 ft | 6 kts | 57° |
| 2026-05-06 00:25 | 43.68011 | -79.59901 | 566 ft | 4 kts | 46° |
| 2026-05-06 00:26 | 43.68014 | -79.59897 | 566 ft | 0 kts | 46° |
| 2026-05-06 00:26 | 43.68015 | -79.59895 | 567 ft | 2 kts | 46° |
| 2026-05-06 00:27 | 43.68034 | -79.59849 | 565 ft | 6 kts | 81° |
| 2026-05-06 00:27 | 43.68005 | -79.59792 | 569 ft | 8 kts | 136° |
| 2026-05-06 00:27 | 43.68003 | -79.59789 | 569 ft | 0 kts | 136° |
| 2026-05-06 00:28 | 43.68000 | -79.59786 | 564 ft | 4 kts | 136° |
| 2026-05-06 00:29 | 43.67937 | -79.59724 | 567 ft | 17 kts | 170° |
| 2026-05-06 00:29 | 43.67872 | -79.59775 | 561 ft | 6 kts | 226° |
| 2026-05-06 00:29 | 43.67871 | -79.59777 | 567 ft | 0 kts | 226° |
| 2026-05-06 00:29 | 43.67865 | -79.59785 | 567 ft | 7 kts | 226° |
| 2026-05-06 00:30 | 43.67682 | -79.60052 | 571 ft | 73 kts | 226° |
| 2026-05-06 00:30 | 43.67187 | -79.60770 | 568 ft | 131 kts | 226° |
| 2026-05-06 00:30 | 43.66714 | -79.61457 | 567 ft | 160 kts | 226° |
| 2026-05-06 00:30 | 43.65942 | -79.62554 | 1145 ft | 154 kts | 227° |
| 2026-05-06 00:31 | 43.65161 | -79.63602 | 1663 ft | 161 kts | 225° |
| 2026-05-06 00:31 | 43.64333 | -79.64685 | 2164 ft | 166 kts | 224° |
| 2026-05-06 00:31 | 43.63480 | -79.65804 | 2589 ft | 176 kts | 226° |
| 2026-05-06 00:31 | 43.62568 | -79.67094 | 2798 ft | 199 kts | 227° |
| 2026-05-06 00:32 | 43.61553 | -79.68542 | 2945 ft | 222 kts | 227° |
| 2026-05-06 00:32 | 43.60411 | -79.70163 | 3223 ft | 248 kts | 227° |
| 2026-05-06 00:32 | 43.59177 | -79.71895 | 3904 ft | 257 kts | 227° |
| 2026-05-06 00:32 | 43.57780 | -79.73464 | 4759 ft | 265 kts | 211° |
| 2026-05-06 00:33 | 43.55985 | -79.74109 | 5691 ft | 273 kts | 186° |
| 2026-05-06 00:33 | 43.54114 | -79.73537 | 6749 ft | 285 kts | 161° |
| 2026-05-06 00:33 | 43.52569 | -79.71722 | 7606 ft | 307 kts | 130° |
| 2026-05-06 00:33 | 43.51735 | -79.68937 | 8390 ft | 321 kts | 111° |
| 2026-05-06 00:34 | 43.51202 | -79.65922 | 9156 ft | 327 kts | 108° |
| 2026-05-06 00:34 | 43.50743 | -79.62820 | 9881 ft | 333 kts | 107° |
| 2026-05-06 00:34 | 43.50414 | -79.59632 | 10558 ft | 342 kts | 95° |
| 2026-05-06 00:34 | 43.50692 | -79.56343 | 11247 ft | 351 kts | 77° |
| 2026-05-06 00:35 | 43.51353 | -79.52993 | 11467 ft | 374 kts | 76° |
| 2026-05-06 00:35 | 43.52049 | -79.49425 | 11609 ft | 397 kts | 77° |
| 2026-05-06 00:35 | 43.52769 | -79.45687 | 12060 ft | 408 kts | 77° |
| 2026-05-06 00:35 | 43.53490 | -79.41939 | 12672 ft | 413 kts | 77° |
| 2026-05-06 00:36 | 43.54283 | -79.38109 | 13353 ft | 418 kts | 75° |
| 2026-05-06 00:36 | 43.55139 | -79.34262 | 13994 ft | 422 kts | 74° |
| 2026-05-06 00:36 | 43.56032 | -79.30389 | 14589 ft | 426 kts | 74° |
| 2026-05-06 00:36 | 43.56941 | -79.26479 | 15183 ft | 430 kts | 74° |
| 2026-05-06 00:37 | 43.57854 | -79.22525 | 15759 ft | 434 kts | 75° |
| 2026-05-06 00:37 | 43.58761 | -79.18536 | 16338 ft | 438 kts | 75° |
| 2026-05-06 00:37 | 43.59665 | -79.14494 | 16914 ft | 442 kts | 76° |
| 2026-05-06 00:37 | 43.60565 | -79.10419 | 17471 ft | 447 kts | 76° |
| 2026-05-06 00:38 | 43.61469 | -79.06302 | 18032 ft | 451 kts | 76° |
| 2026-05-06 00:38 | 43.62382 | -79.02143 | 18506 ft | 455 kts | 76° |
| 2026-05-06 00:38 | 43.63304 | -78.97950 | 18990 ft | 458 kts | 76° |
| 2026-05-06 00:38 | 43.64232 | -78.93731 | 19469 ft | 461 kts | 76° |
| 2026-05-06 00:39 | 43.65169 | -78.89478 | 19953 ft | 464 kts | 76° |
| 2026-05-06 00:39 | 43.66111 | -78.85198 | 20431 ft | 468 kts | 76° |
| 2026-05-06 00:39 | 43.67059 | -78.80882 | 20905 ft | 471 kts | 76° |
| 2026-05-06 00:39 | 43.68008 | -78.76539 | 21368 ft | 475 kts | 76° |
| 2026-05-06 00:40 | 43.68985 | -78.72150 | 21795 ft | 480 kts | 73° |
| 2026-05-06 00:40 | 43.70250 | -78.67852 | 22221 ft | 485 kts | 69° |
| 2026-05-06 00:40 | 43.71579 | -78.63557 | 22680 ft | 488 kts | 69° |
| 2026-05-06 00:40 | 43.72916 | -78.59237 | 23129 ft | 491 kts | 69° |
| 2026-05-06 00:41 | 43.74258 | -78.54882 | 23558 ft | 494 kts | 69° |
| 2026-05-06 00:41 | 43.75604 | -78.50498 | 23940 ft | 496 kts | 69° |
| 2026-05-06 00:41 | 43.76952 | -78.46092 | 24307 ft | 499 kts | 69° |
| 2026-05-06 00:41 | 43.78307 | -78.41654 | 24681 ft | 502 kts | 69° |
| 2026-05-06 00:42 | 43.79665 | -78.37196 | 25044 ft | 504 kts | 68° |
| 2026-05-06 00:42 | 43.81014 | -78.32762 | 25404 ft | 507 kts | 68° |
| 2026-05-06 00:42 | 43.82401 | -78.28194 | 25802 ft | 510 kts | 68° |
| 2026-05-06 00:42 | 43.83782 | -78.23648 | 26110 ft | 514 kts | 68° |
| 2026-05-06 00:43 | 43.85155 | -78.19131 | 26451 ft | 517 kts | 68° |
| 2026-05-06 00:43 | 43.86549 | -78.14538 | 26808 ft | 519 kts | 68° |
| 2026-05-06 00:43 | 43.87951 | -78.09909 | 27163 ft | 522 kts | 68° |
| 2026-05-06 00:43 | 43.89355 | -78.05255 | 27518 ft | 524 kts | 68° |
| 2026-05-06 00:44 | 43.90758 | -78.00579 | 27865 ft | 526 kts | 68° |
| 2026-05-06 00:44 | 43.92167 | -77.95879 | 28202 ft | 529 kts | 68° |
| 2026-05-06 00:44 | 43.93581 | -77.91155 | 28499 ft | 531 kts | 68° |
| 2026-05-06 00:44 | 43.94998 | -77.86407 | 28809 ft | 534 kts | 68° |
| 2026-05-06 00:45 | 43.96423 | -77.81636 | 29148 ft | 536 kts | 68° |
| 2026-05-06 00:45 | 43.97853 | -77.76840 | 29439 ft | 539 kts | 67° |
| 2026-05-06 00:45 | 43.99289 | -77.72015 | 29745 ft | 542 kts | 67° |
| 2026-05-06 00:45 | 44.00730 | -77.67161 | 30042 ft | 544 kts | 67° |
| 2026-05-06 00:46 | 44.02170 | -77.62304 | 30423 ft | 543 kts | 67° |
| 2026-05-06 00:46 | 44.03610 | -77.57449 | 30791 ft | 542 kts | 67° |
| 2026-05-06 00:46 | 44.05043 | -77.52603 | 31169 ft | 542 kts | 67° |
| 2026-05-06 00:46 | 44.06470 | -77.47756 | 31551 ft | 541 kts | 67° |
| 2026-05-06 00:47 | 44.08030 | -77.43003 | 31918 ft | 540 kts | 59° |
| 2026-05-06 00:47 | 44.09968 | -77.38560 | 32291 ft | 537 kts | 54° |
| 2026-05-06 00:47 | 44.11999 | -77.34206 | 32685 ft | 536 kts | 54° |
| 2026-05-06 00:47 | 44.14026 | -77.29846 | 33073 ft | 536 kts | 54° |
| 2026-05-06 00:48 | 44.16046 | -77.25484 | 33471 ft | 535 kts | 54° |
| 2026-05-06 00:48 | 44.18059 | -77.21130 | 33828 ft | 534 kts | 54° |
| 2026-05-06 00:48 | 44.20070 | -77.16782 | 34155 ft | 534 kts | 53° |
| 2026-05-06 00:48 | 44.22080 | -77.12437 | 34480 ft | 533 kts | 53° |
| 2026-05-06 00:49 | 44.24085 | -77.08095 | 34787 ft | 532 kts | 53° |
| 2026-05-06 00:49 | 44.26082 | -77.03759 | 34903 ft | 529 kts | 53° |
| 2026-05-06 00:49 | 44.28061 | -76.99451 | 34877 ft | 526 kts | 53° |
| 2026-05-06 00:50 | 44.31978 | -76.90904 | 34881 ft | 525 kts | 53° |
| 2026-05-06 00:50 | 44.35905 | -76.82310 | 34879 ft | 525 kts | 53° |
| 2026-05-06 00:51 | 44.39840 | -76.73705 | 34877 ft | 526 kts | 53° |
| 2026-05-06 00:51 | 44.43765 | -76.65070 | 34908 ft | 526 kts | 53° |
| 2026-05-06 00:52 | 44.47679 | -76.56419 | 34890 ft | 526 kts | 54° |
| 2026-05-06 00:52 | 44.51588 | -76.47762 | 34871 ft | 526 kts | 54° |
| 2026-05-06 00:53 | 44.55496 | -76.39106 | 34863 ft | 526 kts | 54° |
| 2026-05-06 00:53 | 44.59391 | -76.30434 | 34854 ft | 526 kts | 54° |
| 2026-05-06 00:54 | 44.63242 | -76.21706 | 34842 ft | 528 kts | 59° |
| 2026-05-06 00:54 | 44.66197 | -76.12233 | 34833 ft | 530 kts | 65° |
| 2026-05-06 00:55 | 44.69013 | -76.02633 | 33945 ft | 539 kts | 66° |
| 2026-05-06 00:55 | 44.70467 | -75.97687 | 32575 ft | 554 kts | 67° |
| 2026-05-06 00:55 | 44.71895 | -75.92666 | 31893 ft | 552 kts | 68° |
| 2026-05-06 00:55 | 44.73265 | -75.87625 | 31331 ft | 548 kts | 69° |
| 2026-05-06 00:56 | 44.74580 | -75.82612 | 30715 ft | 546 kts | 70° |
| 2026-05-06 00:56 | 44.75872 | -75.77602 | 30150 ft | 543 kts | 70° |
| 2026-05-06 00:56 | 44.77153 | -75.72633 | 29509 ft | 540 kts | 70° |
| 2026-05-06 00:56 | 44.78441 | -75.67693 | 28960 ft | 534 kts | 70° |
| 2026-05-06 00:57 | 44.79732 | -75.62809 | 28395 ft | 530 kts | 70° |
| 2026-05-06 00:57 | 44.81000 | -75.58033 | 27842 ft | 527 kts | 70° |
| 2026-05-06 00:57 | 44.82297 | -75.53150 | 27278 ft | 523 kts | 70° |
| 2026-05-06 00:57 | 44.83565 | -75.48360 | 26726 ft | 520 kts | 71° |
| 2026-05-06 00:58 | 44.84834 | -75.43599 | 26192 ft | 518 kts | 70° |
| 2026-05-06 00:58 | 44.86141 | -75.38881 | 25624 ft | 515 kts | 69° |
| 2026-05-06 00:58 | 44.87457 | -75.34275 | 25123 ft | 512 kts | 69° |
| 2026-05-06 00:58 | 44.88796 | -75.29644 | 24617 ft | 509 kts | 69° |
| 2026-05-06 00:59 | 44.90126 | -75.25035 | 24109 ft | 505 kts | 69° |
| 2026-05-06 00:59 | 44.91428 | -75.20478 | 23847 ft | 496 kts | 70° |
| 2026-05-06 00:59 | 44.92686 | -75.16023 | 23793 ft | 481 kts | 70° |
| 2026-05-06 00:59 | 44.93907 | -75.11655 | 23818 ft | 478 kts | 70° |
| 2026-05-06 01:00 | 44.95121 | -75.07294 | 23818 ft | 477 kts | 70° |
| 2026-05-06 01:00 | 44.96332 | -75.02931 | 23814 ft | 477 kts | 70° |
| 2026-05-06 01:00 | 44.97540 | -74.98567 | 23822 ft | 477 kts | 70° |
| 2026-05-06 01:00 | 44.98851 | -74.94263 | 23774 ft | 478 kts | 63° |
| 2026-05-06 01:01 | 45.00437 | -74.90159 | 22718 ft | 477 kts | 61° |
| 2026-05-06 01:01 | 45.02062 | -74.86076 | 21390 ft | 474 kts | 60° |
| 2026-05-06 01:01 | 45.03684 | -74.82048 | 20211 ft | 468 kts | 60° |
| 2026-05-06 01:01 | 45.05286 | -74.78083 | 19135 ft | 462 kts | 60° |
| 2026-05-06 01:02 | 45.06860 | -74.74165 | 18275 ft | 451 kts | 60° |
| 2026-05-06 01:02 | 45.08354 | -74.70411 | 18007 ft | 424 kts | 60° |
| 2026-05-06 01:02 | 45.09755 | -74.66868 | 17668 ft | 404 kts | 60° |
| 2026-05-06 01:02 | 45.11128 | -74.63391 | 17241 ft | 405 kts | 60° |
| 2026-05-06 01:03 | 45.12517 | -74.59933 | 16842 ft | 403 kts | 59° |
| 2026-05-06 01:03 | 45.13962 | -74.56531 | 16395 ft | 403 kts | 57° |
| 2026-05-06 01:03 | 45.15449 | -74.53162 | 16058 ft | 407 kts | 57° |
| 2026-05-06 01:03 | 45.16992 | -74.49721 | 16001 ft | 418 kts | 57° |
| 2026-05-06 01:04 | 45.18557 | -74.46216 | 16002 ft | 422 kts | 57° |
| 2026-05-06 01:04 | 45.20113 | -74.42690 | 16007 ft | 423 kts | 57° |
| 2026-05-06 01:04 | 45.21660 | -74.39149 | 15953 ft | 421 kts | 58° |
| 2026-05-06 01:04 | 45.23195 | -74.35612 | 14953 ft | 424 kts | 58° |
| 2026-05-06 01:05 | 45.24739 | -74.32026 | 13824 ft | 426 kts | 58° |
| 2026-05-06 01:05 | 45.26277 | -74.28442 | 12819 ft | 422 kts | 58° |
| 2026-05-06 01:05 | 45.27763 | -74.24970 | 12440 ft | 400 kts | 58° |
| 2026-05-06 01:05 | 45.29180 | -74.21667 | 12012 ft | 383 kts | 58° |
| 2026-05-06 01:06 | 45.30539 | -74.18510 | 11601 ft | 368 kts | 58° |
| 2026-05-06 01:06 | 45.31879 | -74.15397 | 11200 ft | 369 kts | 58° |
| 2026-05-06 01:06 | 45.33212 | -74.12293 | 10791 ft | 367 kts | 58° |
| 2026-05-06 01:06 | 45.34542 | -74.09195 | 10397 ft | 367 kts | 58° |
| 2026-05-06 01:07 | 45.35921 | -74.06213 | 10199 ft | 357 kts | 50° |
| 2026-05-06 01:07 | 45.37592 | -74.03664 | 9980 ft | 348 kts | 38° |
| 2026-05-06 01:07 | 45.39388 | -74.01366 | 9901 ft | 347 kts | 38° |
| 2026-05-06 01:07 | 45.41188 | -73.99039 | 9468 ft | 351 kts | 38° |
| 2026-05-06 01:08 | 45.42971 | -73.96707 | 9171 ft | 346 kts | 38° |
| 2026-05-06 01:08 | 45.44743 | -73.94383 | 8767 ft | 346 kts | 38° |
| 2026-05-06 01:08 | 45.46484 | -73.92104 | 8406 ft | 344 kts | 38° |
| 2026-05-06 01:08 | 45.48238 | -73.89809 | 8135 ft | 338 kts | 38° |
| 2026-05-06 01:09 | 45.49944 | -73.87570 | 8006 ft | 328 kts | 37° |
| 2026-05-06 01:09 | 45.51597 | -73.85403 | 7872 ft | 318 kts | 37° |
| 2026-05-06 01:09 | 45.53203 | -73.83299 | 7749 ft | 309 kts | 37° |
| 2026-05-06 01:09 | 45.54759 | -73.81258 | 7617 ft | 299 kts | 37° |
| 2026-05-06 01:10 | 45.56265 | -73.79282 | 7487 ft | 290 kts | 37° |
| 2026-05-06 01:10 | 45.57737 | -73.77356 | 7255 ft | 286 kts | 36° |
| 2026-05-06 01:10 | 45.59249 | -73.75392 | 6518 ft | 304 kts | 36° |
| 2026-05-06 01:10 | 45.60863 | -73.73304 | 5696 ft | 321 kts | 37° |
| 2026-05-06 01:11 | 45.62516 | -73.71144 | 4803 ft | 322 kts | 38° |
| 2026-05-06 01:11 | 45.64148 | -73.68992 | 4171 ft | 312 kts | 40° |
| 2026-05-06 01:11 | 45.65675 | -73.66960 | 4015 ft | 287 kts | 39° |
| 2026-05-06 01:11 | 45.67066 | -73.65102 | 3983 ft | 262 kts | 39° |
| 2026-05-06 01:12 | 45.68385 | -73.63353 | 4017 ft | 256 kts | 38° |
| 2026-05-06 01:12 | 45.69682 | -73.61648 | 4015 ft | 249 kts | 38° |
| 2026-05-06 01:12 | 45.70941 | -73.59980 | 3995 ft | 245 kts | 39° |
| 2026-05-06 01:12 | 45.71980 | -73.58027 | 3895 ft | 251 kts | 64° |
| 2026-05-06 01:13 | 45.72304 | -73.55620 | 3815 ft | 246 kts | 96° |
| 2026-05-06 01:13 | 45.71864 | -73.53350 | 3748 ft | 228 kts | 126° |
| 2026-05-06 01:13 | 45.70888 | -73.51708 | 3725 ft | 210 kts | 152° |
| 2026-05-06 01:13 | 45.69637 | -73.50812 | 3682 ft | 195 kts | 175° |
| 2026-05-06 01:14 | 45.67123 | -73.50977 | 3608 ft | 178 kts | 201° |
| 2026-05-06 01:14 | 45.65914 | -73.51352 | 3568 ft | 178 kts | 201° |
| 2026-05-06 01:14 | 45.64719 | -73.51718 | 3527 ft | 179 kts | 201° |
| 2026-05-06 01:15 | 45.63490 | -73.52091 | 3483 ft | 178 kts | 201° |
| 2026-05-06 01:15 | 45.62349 | -73.52670 | 3440 ft | 171 kts | 216° |
| 2026-05-06 01:15 | 45.61408 | -73.53663 | 3406 ft | 163 kts | 225° |
| 2026-05-06 01:15 | 45.60608 | -73.54646 | 3364 ft | 145 kts | 227° |
| 2026-05-06 01:16 | 45.59871 | -73.55595 | 3297 ft | 141 kts | 228° |
| 2026-05-06 01:16 | 45.59158 | -73.56526 | 3164 ft | 140 kts | 228° |
| 2026-05-06 01:16 | 45.58675 | -73.57160 | 3054 ft | 139 kts | 228° |
| 2026-05-06 01:16 | 45.57732 | -73.58401 | 2817 ft | 140 kts | 227° |
| 2026-05-06 01:17 | 45.57019 | -73.59339 | 2625 ft | 138 kts | 227° |
| 2026-05-06 01:17 | 45.56317 | -73.60265 | 2466 ft | 137 kts | 227° |
| 2026-05-06 01:17 | 45.55616 | -73.61189 | 2281 ft | 138 kts | 226° |
| 2026-05-06 01:17 | 45.54915 | -73.62113 | 2092 ft | 137 kts | 227° |
| 2026-05-06 01:18 | 45.54442 | -73.62735 | 1964 ft | 137 kts | 227° |
| 2026-05-06 01:18 | 45.53742 | -73.63657 | 1777 ft | 136 kts | 226° |
| 2026-05-06 01:18 | 45.53044 | -73.64576 | 1585 ft | 137 kts | 226° |
| 2026-05-06 01:18 | 45.52348 | -73.65492 | 1403 ft | 135 kts | 226° |
| 2026-05-06 01:19 | 45.51643 | -73.66405 | 1190 ft | 137 kts | 225° |
| 2026-05-06 01:19 | 45.50930 | -73.67317 | 945 ft | 139 kts | 225° |
| 2026-05-06 01:19 | 45.50223 | -73.68256 | 734 ft | 140 kts | 225° |
| 2026-05-06 01:19 | 45.49515 | -73.69213 | 606 ft | 144 kts | 225° |
| 2026-05-06 01:20 | 45.48771 | -73.70177 | 476 ft | 142 kts | 227° |
| 2026-05-06 01:20 | 45.48057 | -73.71132 | 275 ft | 142 kts | 224° |
| 2026-05-06 01:20 | 45.47367 | -73.72038 | 136 ft | 128 kts | 225° |
| 2026-05-06 01:20 | 45.46788 | -73.72805 | 116 ft | 90 kts | 222° |
| 2026-05-06 01:21 | 45.46448 | -73.73255 | 112 ft | 53 kts | 222° |
| 2026-05-06 01:21 | 45.46216 | -73.73554 | 110 ft | 31 kts | 226° |
| 2026-05-06 01:21 | 45.46155 | -73.73777 | 108 ft | 24 kts | 265° |
| 2026-05-06 01:21 | 45.46144 | -73.73976 | 105 ft | 20 kts | 266° |
| 2026-05-06 01:22 | 45.46140 | -73.74117 | 104 ft | 13 kts | 266° |
| 2026-05-06 01:22 | 45.46115 | -73.74240 | 103 ft | 13 kts | 226° |
| 2026-05-06 01:22 | 45.46045 | -73.74331 | 103 ft | 14 kts | 228° |
| 2026-05-06 01:22 | 45.45993 | -73.74437 | 103 ft | 10 kts | 242° |
| 2026-05-06 01:23 | 45.45973 | -73.74513 | 104 ft | 8 kts | 253° |
| 2026-05-06 01:23 | 45.45959 | -73.74586 | 105 ft | 7 kts | 257° |
| 2026-05-06 01:23 | 45.45958 | -73.74671 | 105 ft | 11 kts | 281° |
| 2026-05-06 01:23 | 45.45971 | -73.74732 | 104 ft | 6 kts | 291° |
| 2026-05-06 01:24 | 45.45983 | -73.74823 | 105 ft | 15 kts | 271° |
| 2026-05-06 01:24 | 45.45981 | -73.74931 | 105 ft | 10 kts | 272° |
| 2026-05-06 01:24 | 45.45995 | -73.75016 | 105 ft | 8 kts | 268° |
| 2026-05-06 01:24 | 45.45973 | -73.75045 | 105 ft | 3 kts | 176° |
| 2026-05-06 01:25 | 45.45957 | -73.75045 | 105 ft | 3 kts | 179° |
| 2026-05-06 01:25 | 45.45942 | -73.75044 | 105 ft | 1 kts | 178° |
| 2026-05-06 01:25 | 45.45931 | -73.75044 | 105 ft | 1 kts | 178° |
| 2026-05-06 01:25 | 45.45927 | -73.75043 | 105 ft | 1 kts | 178° |